Главная страница
METAR-TAF:

METAR-TAF

Аэропорты :

South Jersey Regional Airport

Mount Holly, Нью-Джерси, США

широта: 39-56-26N, долгота: 074-50-28W, высота над уровнем моря: 16 м

Текущие метеонаблюдения

Эта сводка был подготовлена 36 минут назад, в 13:54 UTC
Ветер 4 Узел от западный
Температура 27°C
Влажность 74%
Давление 1019 hPa
Видимость: 14.5 км
ясное небо

METAR: KVAY 161354Z AUTO 26004KT 9SM CLR 27/22 A3009 RMK AO2 SLP187 T02670217 $

Время: 10:30 (14:30 UTC)


TAF: отсутствует

Метеонаблюдения и прогнозы для более 4000 аэропортов (сводки METAR и TAF).

Имеющиеся станции представлены на карте желтыми и красными точками.

Чтобы увидеть название станции, наведите на нее мышь.

Затем щелкните, чтобы увидеть метеонаблюдения и метеопрогнозы.

Управление картой: чтобы увеличить масштаб, щелкните зеленые кнопки с черным крестиком; чтобы уменьшить масштаб, щелкните зеленую кнопку с тире; для просмотра соседних карт щелкайте зеленые стрелки.


METAR-TAF: